createdAt,value
2024-03-08T00:01:33.986Z,13.80
2024-03-08T00:06:56.501Z,18.63
2024-03-08T00:12:19.196Z,16.70
2024-03-08T00:17:43.376Z,20.07
2024-03-08T00:23:06.106Z,15.03
2024-03-08T00:28:28.624Z,16.77
2024-03-08T00:33:53.709Z,17.97
2024-03-08T00:39:16.253Z,17.37
2024-03-08T00:44:38.893Z,17.23
2024-03-08T00:50:04.974Z,19.50
2024-03-08T00:55:27.598Z,17.47
2024-03-08T01:00:50.836Z,14.87
2024-03-08T01:06:14.886Z,17.43
2024-03-08T01:11:37.472Z,17.27
2024-03-08T01:17:00.583Z,17.87
2024-03-08T01:22:24.720Z,16.67
2024-03-08T01:27:47.136Z,18.57
2024-03-08T01:33:09.887Z,17.33
2024-03-08T01:38:34.917Z,17.73
2024-03-08T01:43:57.406Z,17.93
2024-03-08T01:49:21.874Z,18.53
2024-03-08T01:54:46.639Z,17.87
2024-03-08T02:00:11.960Z,19.30
2024-03-08T02:05:34.896Z,24.57
2024-03-08T02:10:58.694Z,18.90
2024-03-08T02:16:22.521Z,18.93
2024-03-08T02:21:48.661Z,19.77
2024-03-08T02:27:13.008Z,23.97
2024-03-08T02:32:35.669Z,20.00
2024-03-08T02:37:59.490Z,19.17
2024-03-08T02:43:23.112Z,20.73
2024-03-08T02:48:45.652Z,19.20
2024-03-08T02:54:11.346Z,17.27
2024-03-08T02:59:34.461Z,21.90
2024-03-08T03:04:57.296Z,19.87
2024-03-08T03:10:22.809Z,19.30
2024-03-08T03:15:45.241Z,16.90
2024-03-08T03:21:08.814Z,18.60
2024-03-08T03:26:33.086Z,16.93
2024-03-08T03:31:55.589Z,18.13
2024-03-08T03:37:19.366Z,21.90
2024-03-08T03:42:43.140Z,16.77
2024-03-08T03:48:06.264Z,24.70
2024-03-08T03:53:28.915Z,19.07
2024-03-08T03:58:52.763Z,20.20
2024-03-08T04:04:15.193Z,18.40
2024-03-08T04:09:37.677Z,19.80
2024-03-08T04:15:01.642Z,19.23
2024-03-08T04:20:24.205Z,16.47
2024-03-08T04:25:46.643Z,18.47
2024-03-08T04:31:10.439Z,20.23
2024-03-08T04:36:33.590Z,21.37
2024-03-08T04:41:57.538Z,17.13
2024-03-08T04:47:21.406Z,18.47
2024-03-08T04:52:43.828Z,19.50
2024-03-08T04:58:06.810Z,20.07
2024-03-08T05:03:31.379Z,20.97
2024-03-08T05:08:53.846Z,24.03
2024-03-08T05:14:17.859Z,20.07
2024-03-08T05:19:41.847Z,21.93
2024-03-08T05:25:04.317Z,22.00
2024-03-08T05:30:26.757Z,19.40
2024-03-08T05:35:50.588Z,20.97
2024-03-08T05:41:13.820Z,22.10
2024-03-08T05:46:36.710Z,21.57
2024-03-08T05:52:01.186Z,22.10
2024-03-08T05:57:24.261Z,21.13
2024-03-08T06:02:46.738Z,22.17
2024-03-08T06:08:10.565Z,23.30
2024-03-08T06:13:33.308Z,20.40
2024-03-08T06:18:56.481Z,21.77
2024-03-08T06:24:20.702Z,20.90
2024-03-08T06:29:43.162Z,21.30
2024-03-08T06:35:07.271Z,24.07
2024-03-08T06:40:31.107Z,20.10
2024-03-08T06:45:53.761Z,27.17
2024-03-08T06:51:16.643Z,21.90
2024-03-08T06:56:40.578Z,24.93
2024-03-08T07:02:03.014Z,20.97
2024-03-08T07:07:25.499Z,20.97
2024-03-08T07:12:49.308Z,20.53
2024-03-08T07:18:15.571Z,19.60
2024-03-08T07:24:04.680Z,17.97
2024-03-08T07:29:28.978Z,21.57
2024-03-08T07:34:51.792Z,20.00
2024-03-08T07:40:14.812Z,17.67
2024-03-08T07:45:38.926Z,18.87
2024-03-08T07:51:01.399Z,17.47
2024-03-08T07:56:23.819Z,19.37
2024-03-08T08:01:48.284Z,16.23
2024-03-08T08:07:10.780Z,18.20
2024-03-08T08:12:35.693Z,15.83
2024-03-08T08:17:59.499Z,16.97
2024-03-08T08:23:21.990Z,15.87
2024-03-08T08:28:44.490Z,15.53
2024-03-08T08:34:08.407Z,16.03
2024-03-08T08:39:30.971Z,15.73
2024-03-08T08:44:54.919Z,16.13
2024-03-08T08:50:24.549Z,16.70
2024-03-08T08:55:47.801Z,16.03
2024-03-08T09:01:11.121Z,15.73
2024-03-08T09:06:35.049Z,14.47
2024-03-08T09:11:57.647Z,16.13
2024-03-08T09:17:21.920Z,17.00
2024-03-08T09:22:47.201Z,13.30
2024-03-08T09:28:10.187Z,14.73
2024-03-08T09:33:34.549Z,15.57
2024-03-08T09:39:00.061Z,13.53
2024-03-08T09:44:23.442Z,12.73
2024-03-08T09:49:47.424Z,11.93
2024-03-08T09:55:12.488Z,13.70
2024-03-08T10:00:35.041Z,14.83
2024-03-08T10:06:01.466Z,10.77
2024-03-08T10:11:26.500Z,12.17
2024-03-08T10:16:49.040Z,10.83
2024-03-08T10:22:16.297Z,12.30
2024-03-08T10:27:40.660Z,12.03
2024-03-08T10:33:06.227Z,9.90
2024-03-08T10:38:30.330Z,9.87
2024-03-08T10:44:09.423Z,9.90
2024-03-08T10:49:35.656Z,10.77
2024-03-08T10:54:58.362Z,10.93
2024-03-08T11:00:27.613Z,8.03
2024-03-08T11:05:50.036Z,10.03
2024-03-08T11:11:31.168Z,8.33
2024-03-08T11:16:57.241Z,7.63
2024-03-08T11:22:28.949Z,9.07
2024-03-08T11:27:54.879Z,7.90
2024-03-08T11:33:19.785Z,8.00
2024-03-08T11:38:42.402Z,9.63
2024-03-08T11:44:07.856Z,7.97
2024-03-08T11:49:33.994Z,8.37
2024-03-08T11:54:59.002Z,8.73
2024-03-08T12:00:24.870Z,8.53
2024-03-08T12:05:49.214Z,7.93
2024-03-08T12:11:11.931Z,7.87
2024-03-08T12:16:34.757Z,9.83
2024-03-08T12:21:58.595Z,12.77
2024-03-08T12:27:21.242Z,9.50
2024-03-08T12:32:48.648Z,10.83
2024-03-08T12:38:12.845Z,7.10
2024-03-08T12:43:35.550Z,9.10
2024-03-08T12:48:58.163Z,7.10
2024-03-08T12:54:24.574Z,8.17
2024-03-08T12:59:47.157Z,7.07
2024-03-08T13:05:10.878Z,7.83
2024-03-08T13:10:34.789Z,7.90
2024-03-08T13:15:57.680Z,7.33
2024-03-08T13:21:24.904Z,8.63
2024-03-08T13:26:49.147Z,7.83
2024-03-08T13:32:12.996Z,9.07
2024-03-08T13:37:36.393Z,8.60
2024-03-08T13:43:02.139Z,7.20
2024-03-08T13:48:24.837Z,10.27
2024-03-08T13:53:47.802Z,9.77
2024-03-08T13:59:11.726Z,9.47
2024-03-08T14:04:34.346Z,8.63
2024-03-08T14:09:56.839Z,9.03
2024-03-08T14:15:21.654Z,8.90
2024-03-08T14:20:45.387Z,8.63
2024-03-08T14:26:09.129Z,8.90
2024-03-08T14:31:33.368Z,10.43
2024-03-08T14:36:55.789Z,13.00
2024-03-08T14:42:18.225Z,10.70
2024-03-08T14:47:42.144Z,9.80
2024-03-08T14:53:07.530Z,10.63
2024-03-08T14:58:30.175Z,11.70
2024-03-08T15:03:53.971Z,9.87
2024-03-08T15:09:19.344Z,10.80
2024-03-08T15:14:44.410Z,11.43
2024-03-08T15:20:16.128Z,11.70
2024-03-08T15:25:40.035Z,9.87
2024-03-08T15:31:06.539Z,10.37
2024-03-08T15:36:32.147Z,9.70
2024-03-08T15:41:56.311Z,10.97
2024-03-08T15:47:19.909Z,10.17
2024-03-08T15:52:45.685Z,11.13
2024-03-08T15:58:10.673Z,11.27
2024-03-08T16:03:34.728Z,11.20
2024-03-08T16:09:00.441Z,10.47
2024-03-08T16:14:23.019Z,12.43
2024-03-08T16:19:46.003Z,11.53
2024-03-08T16:25:13.360Z,10.77
2024-03-08T16:30:35.805Z,9.80
2024-03-08T16:35:58.231Z,14.90
2024-03-08T16:41:22.505Z,11.33
2024-03-08T16:46:45.193Z,9.17
2024-03-08T16:52:07.875Z,10.57
2024-03-08T16:57:32.803Z,9.57
2024-03-08T17:02:55.621Z,12.03
2024-03-08T17:08:18.944Z,10.10
2024-03-08T17:13:44.062Z,9.00
2024-03-08T17:19:07.379Z,12.93
2024-03-08T17:24:30.641Z,8.73
2024-03-08T17:29:55.848Z,8.97
2024-03-08T17:35:19.867Z,10.83
2024-03-08T17:40:44.747Z,9.77
2024-03-08T17:46:08.899Z,10.93
2024-03-08T17:51:31.437Z,11.87
2024-03-08T17:56:56.169Z,12.60
2024-03-08T18:02:20.693Z,11.93
2024-03-08T18:07:43.389Z,13.20
2024-03-08T18:13:12.834Z,12.37
2024-03-08T18:18:37.959Z,14.60
2024-03-08T18:24:01.986Z,14.47
2024-03-08T18:29:24.417Z,10.90
2024-03-08T18:34:48.270Z,13.67
2024-03-08T18:40:13.130Z,11.10
2024-03-08T18:45:36.309Z,11.67
2024-03-08T18:51:01.980Z,9.40
2024-03-08T18:56:24.433Z,12.13
2024-03-08T19:01:48.974Z,14.13
2024-03-08T19:07:12.980Z,13.33
2024-03-08T19:12:35.442Z,12.63
2024-03-08T19:17:58.163Z,12.83
2024-03-08T19:23:22.049Z,13.10
2024-03-08T19:28:45.541Z,13.47
2024-03-08T19:34:09.253Z,13.97
2024-03-08T19:39:33.427Z,15.40
2024-03-08T19:44:55.947Z,15.50
2024-03-08T19:50:18.802Z,13.37
2024-03-08T19:55:43.695Z,14.20
2024-03-08T20:01:06.323Z,15.80
2024-03-08T20:06:28.885Z,16.07
2024-03-08T20:11:55.464Z,17.43
2024-03-08T20:17:19.067Z,15.87
2024-03-08T20:22:42.784Z,17.03
2024-03-08T20:28:07.493Z,15.10
2024-03-08T20:33:32.986Z,14.67
2024-03-08T20:38:55.635Z,15.60
2024-03-08T20:44:19.621Z,15.87
2024-03-08T20:49:42.088Z,15.57
2024-03-08T20:55:09.319Z,15.53
2024-03-08T21:00:49.316Z,16.07
2024-03-08T21:06:11.777Z,16.13
2024-03-08T21:11:34.436Z,13.97
2024-03-08T21:16:59.067Z,15.17
2024-03-08T21:22:23.110Z,19.23
2024-03-08T21:27:45.573Z,15.97
2024-03-08T21:33:12.359Z,19.67
2024-03-08T21:38:35.390Z,18.07
2024-03-08T21:43:57.879Z,14.10
2024-03-08T21:49:21.784Z,17.60
2024-03-08T21:54:44.529Z,15.80
2024-03-08T22:00:12.214Z,15.50
2024-03-08T22:05:36.852Z,13.20
2024-03-08T22:11:00.589Z,15.43
2024-03-08T22:16:24.009Z,15.67
2024-03-08T22:21:47.852Z,14.40
2024-03-08T22:27:10.555Z,13.03
2024-03-08T22:32:33.005Z,14.33
2024-03-08T22:37:57.140Z,16.67
2024-03-08T22:43:19.830Z,15.50
2024-03-08T22:48:43.097Z,13.37
2024-03-08T22:54:07.173Z,13.33
2024-03-08T22:59:29.620Z,15.33
2024-03-08T23:04:53.022Z,15.33
2024-03-08T23:10:17.172Z,14.77
2024-03-08T23:15:42.062Z,12.37
2024-03-08T23:21:04.961Z,11.53
2024-03-08T23:26:29.065Z,11.30
2024-03-08T23:31:51.653Z,14.17
2024-03-08T23:37:14.149Z,10.97
2024-03-08T23:42:38.181Z,12.40
2024-03-08T23:48:01.572Z,11.03
2024-03-08T23:53:24.102Z,11.57
2024-03-08T23:58:50.517Z,15.57
